Etusivu
METAR-TAF:

METAR-TAF

Lentoasemat :

Kuwaitin kansainvälinen lentoasema

Kuwait, Kuwait

Leveyspiiri: 29-13N, Pituuspiiri: 047-59E, korkeus merenpinnasta: 55 m

Tämänhetkinen sää

Tämä raportti tehtiin 47 minuuttia sitten, kello 19.00 UTC
Tuuli 4 kn lännestä
Lämpötila 15°C
Kosteus 94%
Ilmanpaine 1019 hPa
Näkyvyys: 7000 m

METAR: OKBK 211900Z 26004KT 7000 NSC 15/14 Q1019 NOSIG

Aika: 22:47 (19:47 UTC)

Sääennuste

Tämä raportti tehtiin 3 tuntia ja 2 minuuttia sitten, kello 16.45 UTC
Ennuste voimassa 21. päivästä klo 18 UTC - 22. päivään klo 24 UTC
Tuuli 3 kn eri suunnista
Näkyvyys: 7000 m

TAF: OKBK 211645Z 2118/2224 VRB03KT 7000 NSC

Säähavainnot ja -ennusteet yli 4000 lentoasemalta (METAR- ja TAF-raportit).

Käytössä olevat sääasemat on merkitty karttaan keltaisilla ja punaisilla pisteillä.

Aseta hiiri pisteen päälle nähdäksesi sääaseman nimen.

Klikkaa sitten nähdäksesi säähavainnot ja -ennusteet.

Kartan vaihtaminen: klikkaa mustalla rastilla varustettuja vihreitä pisteitä, niin voit zoomata sisään; viivalla varustettua vihreää pistettä, niin voit zoomata ulos tai vihreitä nuolia, niin pääset viereisille kartoille.


METAR-TAF: